<?xml version="1.0" encoding="UTF-8" standalone="no" ?>
<gpx xmlns="http://www.topografix.com/GPX/1/1" xmlns:xsi="http://www.w3.org/2001/XMLSchema-instance" xsi:schemaLocation="http://www.topografix.com/GPX/1/1 http://www.topografix.com/GPX/1/1/gpx.xsd" version="1.1" creator="VisuGPX - https://www.visugpx.com">
  <metadata>
    <name>Thoissey 5Km départ parc</name>
  </metadata>
  <trk>
    <name><![CDATA[Thoissey 5 km  2025-20739528-20744206]]></name>
    <extensions>
      <line xmlns="http://www.topografix.com/GPX/gpx_style/0/2">
        <color>0000FF</color>
        <opacity>1</opacity>
        <width>4</width>
          <extensions>
            <sens>1</sens>
          </extensions>
      </line>
    </extensions>
    <trkseg>
      <trkpt lat="46.1716" lon="4.80275">
        <ele>175</ele>
        <time>2025-02-21T17:41:21Z</time>
      </trkpt>
      <trkpt lat="46.1716" lon="4.8033">
        <ele>173</ele>
        <time>2025-02-21T17:42:12Z</time>
      </trkpt>
      <trkpt lat="46.17137" lon="4.80326">
        <ele>175</ele>
        <time>2025-02-21T17:42:43Z</time>
      </trkpt>
      <trkpt lat="46.17104" lon="4.80302">
        <ele>176</ele>
        <time>2025-02-21T17:43:32Z</time>
      </trkpt>
      <trkpt lat="46.1708" lon="4.80249">
        <ele>177</ele>
        <time>2025-02-21T17:44:31Z</time>
      </trkpt>
      <trkpt lat="46.17026" lon="4.80263">
        <ele>176</ele>
        <time>2025-02-21T17:45:44Z</time>
      </trkpt>
      <trkpt lat="46.17002" lon="4.80292">
        <ele>175</ele>
        <time>2025-02-21T17:46:26Z</time>
      </trkpt>
      <trkpt lat="46.16998" lon="4.80312">
        <ele>174</ele>
        <time>2025-02-21T17:46:45Z</time>
      </trkpt>
      <trkpt lat="46.16987" lon="4.80312">
        <ele>174</ele>
        <time>2025-02-21T17:46:59Z</time>
      </trkpt>
      <trkpt lat="46.16977" lon="4.80377">
        <ele>171</ele>
        <time>2025-02-21T17:48:01Z</time>
      </trkpt>
      <trkpt lat="46.16948" lon="4.80361">
        <ele>171</ele>
        <time>2025-02-21T17:48:42Z</time>
      </trkpt>
      <trkpt lat="46.16928" lon="4.80404">
        <ele>169</ele>
        <time>2025-02-21T17:49:30Z</time>
      </trkpt>
      <trkpt lat="46.16856" lon="4.80396">
        <ele>170</ele>
        <time>2025-02-21T17:51:07Z</time>
      </trkpt>
      <trkpt lat="46.1684" lon="4.80422">
        <ele>170</ele>
        <time>2025-02-21T17:51:39Z</time>
      </trkpt>
      <trkpt lat="46.16829" lon="4.80439">
        <ele>170</ele>
        <time>2025-02-21T17:52:00Z</time>
      </trkpt>
      <trkpt lat="46.16763" lon="4.80427">
        <ele>170</ele>
        <time>2025-02-21T17:53:29Z</time>
      </trkpt>
      <trkpt lat="46.16707" lon="4.80425">
        <ele>169</ele>
        <time>2025-02-21T17:54:44Z</time>
      </trkpt>
      <trkpt lat="46.16652" lon="4.80447">
        <ele>168</ele>
        <time>2025-02-21T17:56:00Z</time>
      </trkpt>
      <trkpt lat="46.1658" lon="4.80493">
        <ele>168</ele>
        <time>2025-02-21T17:57:45Z</time>
      </trkpt>
      <trkpt lat="46.16503" lon="4.80539">
        <ele>169</ele>
        <time>2025-02-21T17:59:36Z</time>
      </trkpt>
      <trkpt lat="46.1647" lon="4.80564">
        <ele>169</ele>
        <time>2025-02-21T18:00:26Z</time>
      </trkpt>
      <trkpt lat="46.16433" lon="4.80581">
        <ele>170</ele>
        <time>2025-02-21T18:01:18Z</time>
      </trkpt>
      <trkpt lat="46.16414" lon="4.80586">
        <ele>170</ele>
        <time>2025-02-21T18:01:44Z</time>
      </trkpt>
      <trkpt lat="46.16314" lon="4.80658">
        <ele>169</ele>
        <time>2025-02-21T18:04:13Z</time>
      </trkpt>
      <trkpt lat="46.16252" lon="4.80705">
        <ele>167</ele>
        <time>2025-02-21T18:05:46Z</time>
      </trkpt>
      <trkpt lat="46.16221" lon="4.80718">
        <ele>168</ele>
        <time>2025-02-21T18:06:29Z</time>
      </trkpt>
      <trkpt lat="46.16202" lon="4.80719">
        <ele>168</ele>
        <time>2025-02-21T18:06:55Z</time>
      </trkpt>
      <trkpt lat="46.16144" lon="4.80718">
        <ele>169</ele>
        <time>2025-02-21T18:08:12Z</time>
      </trkpt>
      <trkpt lat="46.16039" lon="4.80737">
        <ele>169</ele>
        <time>2025-02-21T18:10:33Z</time>
      </trkpt>
      <trkpt lat="46.16006" lon="4.80754">
        <ele>168</ele>
        <time>2025-02-21T18:11:20Z</time>
      </trkpt>
      <trkpt lat="46.15972" lon="4.80795">
        <ele>168</ele>
        <time>2025-02-21T18:12:19Z</time>
      </trkpt>
      <trkpt lat="46.15834" lon="4.80883">
        <ele>170</ele>
        <time>2025-02-21T18:15:40Z</time>
      </trkpt>
      <trkpt lat="46.15771" lon="4.80938">
        <ele>169</ele>
        <time>2025-02-21T18:17:19Z</time>
      </trkpt>
      <trkpt lat="46.15712" lon="4.80969">
        <ele>169</ele>
        <time>2025-02-21T18:18:42Z</time>
      </trkpt>
      <trkpt lat="46.15564" lon="4.81079">
        <ele>170</ele>
        <time>2025-02-21T18:22:25Z</time>
      </trkpt>
      <trkpt lat="46.15567" lon="4.8099">
        <ele>169</ele>
        <time>2025-02-21T18:23:47Z</time>
      </trkpt>
      <trkpt lat="46.15568" lon="4.80808">
        <ele>168</ele>
        <time>2025-02-21T18:26:35Z</time>
      </trkpt>
      <trkpt lat="46.15569" lon="4.80667">
        <ele>167</ele>
        <time>2025-02-21T18:28:46Z</time>
      </trkpt>
      <trkpt lat="46.15567" lon="4.80505">
        <ele>171</ele>
        <time>2025-02-21T18:31:15Z</time>
      </trkpt>
      <trkpt lat="46.15609" lon="4.80486">
        <ele>170</ele>
        <time>2025-02-21T18:32:14Z</time>
      </trkpt>
      <trkpt lat="46.15721" lon="4.80455">
        <ele>169</ele>
        <time>2025-02-21T18:34:46Z</time>
      </trkpt>
      <trkpt lat="46.15774" lon="4.80446">
        <ele>169</ele>
        <time>2025-02-21T18:35:57Z</time>
      </trkpt>
      <trkpt lat="46.15813" lon="4.8042">
        <ele>171</ele>
        <time>2025-02-21T18:36:55Z</time>
      </trkpt>
      <trkpt lat="46.15872" lon="4.80366">
        <ele>171</ele>
        <time>2025-02-21T18:38:28Z</time>
      </trkpt>
      <trkpt lat="46.15937" lon="4.8029">
        <ele>170</ele>
        <time>2025-02-21T18:40:20Z</time>
      </trkpt>
      <trkpt lat="46.15978" lon="4.80227">
        <ele>168</ele>
        <time>2025-02-21T18:41:40Z</time>
      </trkpt>
      <trkpt lat="46.16042" lon="4.80124">
        <ele>169</ele>
        <time>2025-02-21T18:43:47Z</time>
      </trkpt>
      <trkpt lat="46.16064" lon="4.80104">
        <ele>168</ele>
        <time>2025-02-21T18:44:22Z</time>
      </trkpt>
      <trkpt lat="46.16127" lon="4.79996">
        <ele>168</ele>
        <time>2025-02-21T18:46:33Z</time>
      </trkpt>
      <trkpt lat="46.16204" lon="4.79855">
        <ele>169</ele>
        <time>2025-02-21T18:49:19Z</time>
      </trkpt>
      <trkpt lat="46.16289" lon="4.79705">
        <ele>169</ele>
        <time>2025-02-21T18:52:18Z</time>
      </trkpt>
      <trkpt lat="46.16319" lon="4.79633">
        <ele>168</ele>
        <time>2025-02-21T18:53:35Z</time>
      </trkpt>
      <trkpt lat="46.16323" lon="4.79628">
        <ele>168</ele>
        <time>2025-02-21T18:53:42Z</time>
      </trkpt>
      <trkpt lat="46.16357" lon="4.79516">
        <ele>168</ele>
        <time>2025-02-21T18:55:35Z</time>
      </trkpt>
      <trkpt lat="46.16417" lon="4.79402">
        <ele>169</ele>
        <time>2025-02-21T18:57:48Z</time>
      </trkpt>
      <trkpt lat="46.16489" lon="4.79267">
        <ele>169</ele>
        <time>2025-02-21T19:00:25Z</time>
      </trkpt>
      <trkpt lat="46.16511" lon="4.7922">
        <ele>170</ele>
        <time>2025-02-21T19:01:18Z</time>
      </trkpt>
      <trkpt lat="46.16515" lon="4.79203">
        <ele>170</ele>
        <time>2025-02-21T19:01:34Z</time>
      </trkpt>
      <trkpt lat="46.1651" lon="4.79168">
        <ele>171</ele>
        <time>2025-02-21T19:02:07Z</time>
      </trkpt>
      <trkpt lat="46.16525" lon="4.7911">
        <ele>171</ele>
        <time>2025-02-21T19:03:05Z</time>
      </trkpt>
      <trkpt lat="46.1656" lon="4.79143">
        <ele>171</ele>
        <time>2025-02-21T19:04:00Z</time>
      </trkpt>
      <trkpt lat="46.16597" lon="4.79225">
        <ele>171</ele>
        <time>2025-02-21T19:05:31Z</time>
      </trkpt>
      <trkpt lat="46.16649" lon="4.7932">
        <ele>171</ele>
        <time>2025-02-21T19:07:23Z</time>
      </trkpt>
      <trkpt lat="46.16683" lon="4.79385">
        <ele>173</ele>
        <time>2025-02-21T19:08:38Z</time>
      </trkpt>
      <trkpt lat="46.16689" lon="4.7941">
        <ele>173</ele>
        <time>2025-02-21T19:09:02Z</time>
      </trkpt>
      <trkpt lat="46.16747" lon="4.79478">
        <ele>178</ele>
        <time>2025-02-21T19:10:42Z</time>
      </trkpt>
      <trkpt lat="46.16811" lon="4.79556">
        <ele>176</ele>
        <time>2025-02-21T19:12:34Z</time>
      </trkpt>
      <trkpt lat="46.1689" lon="4.79651">
        <ele>176</ele>
        <time>2025-02-21T19:14:51Z</time>
      </trkpt>
      <trkpt lat="46.16989" lon="4.79771">
        <ele>174</ele>
        <time>2025-02-21T19:17:44Z</time>
      </trkpt>
      <trkpt lat="46.17036" lon="4.79831">
        <ele>174</ele>
        <time>2025-02-21T19:19:07Z</time>
      </trkpt>
      <trkpt lat="46.17064" lon="4.79865">
        <ele>175</ele>
        <time>2025-02-21T19:19:56Z</time>
      </trkpt>
      <trkpt lat="46.17082" lon="4.79895">
        <ele>176</ele>
        <time>2025-02-21T19:20:33Z</time>
      </trkpt>
      <trkpt lat="46.17089" lon="4.79939">
        <ele>175</ele>
        <time>2025-02-21T19:21:14Z</time>
      </trkpt>
      <trkpt lat="46.17088" lon="4.79966">
        <ele>173</ele>
        <time>2025-02-21T19:21:39Z</time>
      </trkpt>
      <trkpt lat="46.17098" lon="4.80021">
        <ele>172</ele>
        <time>2025-02-21T19:22:32Z</time>
      </trkpt>
      <trkpt lat="46.17118" lon="4.80091">
        <ele>174</ele>
        <time>2025-02-21T19:23:42Z</time>
      </trkpt>
      <trkpt lat="46.17128" lon="4.80137">
        <ele>174</ele>
        <time>2025-02-21T19:24:27Z</time>
      </trkpt>
      <trkpt lat="46.17162" lon="4.80274">
        <ele>175</ele>
        <time>2025-02-21T19:26:41Z</time>
      </trkpt>
    </trkseg>
  </trk>
</gpx>